Time;durP1;ratioP1;P1;durP2;ratioP2;P2;SDS_P1;SDS_P2;PMS_P1;PMS_P2;Temp;Humidity;BMP_temperature;BMP_pressure;BME280_temperature;BME280_humidity;BME280_pressure;Samples;Min_cycle;Max_cycle;Signal;HPM_P1;HPM_P2
2024/04/10 00:00:56;;;;;;;1.07;0.70;;;9.10;99.90;;;;;;5344237;26;20566;-75
2024/04/10 00:03:22;;;;;;;1.83;0.70;;;9.20;99.90;;;;;;5309277;26;20473;-74
2024/04/10 00:05:58;;;;;;;2.07;1.03;;;9.30;99.90;;;;;;5310179;26;20486;-73
2024/04/10 00:08:24;;;;;;;1.00;0.90;;;9.20;99.90;;;;;;5346637;26;21141;-73
2024/04/10 00:10:50;;;;;;;0.83;0.70;;;9.10;99.90;;;;;;5344696;26;20477;-73
2024/04/10 00:13:16;;;;;;;0.83;0.80;;;9.20;99.90;;;;;;5283737;26;20529;-75
2024/04/10 00:15:42;;;;;;;2.50;0.80;;;9.20;99.90;;;;;;5317367;26;20298;-73
2024/04/10 00:18:07;;;;;;;1.50;0.83;;;9.20;99.90;;;;;;5281501;26;20489;-73
2024/04/10 00:20:33;;;;;;;2.07;1.00;;;9.20;99.90;;;;;;5315446;26;20419;-72
2024/04/10 00:22:59;;;;;;;0.93;0.70;;;9.00;99.90;;;;;;5307477;26;20262;-76
2024/04/10 00:25:24;;;;;;;0.80;0.63;;;8.80;99.90;;;;;;5314209;26;20261;-73
2024/04/10 00:27:50;;;;;;;1.67;0.93;;;8.90;99.90;;;;;;5342976;26;20313;-73
2024/04/10 00:30:15;;;;;;;3.13;1.33;;;8.80;99.90;;;;;;5309812;26;20255;-74
2024/04/10 00:32:41;;;;;;;1.17;1.07;;;8.70;99.90;;;;;;5343979;26;20267;-74
2024/04/10 00:35:07;;;;;;;1.40;1.03;;;8.70;99.90;;;;;;5342910;26;20255;-74
2024/04/10 00:37:32;;;;;;;1.70;1.00;;;8.70;99.90;;;;;;5345496;26;20263;-74
2024/04/10 00:39:58;;;;;;;0.80;0.80;;;8.70;99.90;;;;;;5342010;26;20266;-74
2024/04/10 00:42:24;;;;;;;1.93;0.83;;;8.60;99.90;;;;;;5314324;26;20258;-74
2024/04/10 00:44:53;;;;;;;2.33;0.87;;;8.60;99.90;;;;;;5313230;26;20263;-74
2024/04/10 00:47:20;;;;;;;3.50;1.07;;;8.60;99.90;;;;;;5316591;26;20258;-75
2024/04/10 00:49:46;;;;;;;1.90;1.00;;;8.60;99.90;;;;;;5340383;26;20501;-74
2024/04/10 00:52:12;;;;;;;4.90;1.03;;;8.50;99.90;;;;;;5342728;26;20564;-74
2024/04/10 00:54:39;;;;;;;1.40;1.03;;;8.50;99.90;;;;;;5342442;26;20530;-72
2024/04/10 00:57:05;;;;;;;1.13;0.70;;;8.40;99.90;;;;;;5341183;26;20352;-74
2024/04/10 00:59:30;;;;;;;5.23;1.20;;;8.40;99.90;;;;;;5340998;26;20505;-71
2024/04/10 01:01:58;;;;;;;1.00;0.90;;;8.30;99.90;;;;;;5342200;26;20334;-74
2024/04/10 01:04:24;;;;;;;2.20;1.10;;;8.40;99.90;;;;;;5315467;26;20489;-74
2024/04/10 01:06:50;;;;;;;1.77;1.10;;;8.50;99.90;;;;;;5318644;26;20601;-74
2024/04/10 01:09:16;;;;;;;1.60;0.90;;;8.50;99.90;;;;;;5334180;26;20494;-74
2024/04/10 01:11:41;;;;;;;4.53;1.30;;;8.50;99.90;;;;;;5310464;26;20283;-73
2024/04/10 01:14:07;;;;;;;3.03;0.93;;;8.60;99.90;;;;;;5314447;26;20302;-74
2024/04/10 01:16:33;;;;;;;2.70;1.33;;;8.50;99.90;;;;;;5319695;26;20263;-75
2024/04/10 01:18:58;;;;;;;1.90;1.17;;;8.40;99.90;;;;;;5306410;26;20252;-76
2024/04/10 01:21:24;;;;;;;2.13;1.13;;;8.30;99.90;;;;;;5308689;26;20255;-73
2024/04/10 01:23:50;;;;;;;1.67;1.17;;;8.30;99.90;;;;;;5314127;26;20292;-73
2024/04/10 01:26:15;;;;;;;4.20;1.40;;;8.30;99.90;;;;;;5307693;26;20358;-72
2024/04/10 01:28:41;;;;;;;3.60;1.20;;;8.30;99.90;;;;;;5345679;26;20308;-74
2024/04/10 01:31:07;;;;;;;4.73;1.30;;;8.30;99.90;;;;;;5309124;26;20262;-74
2024/04/10 01:33:32;;;;;;;3.93;1.20;;;8.20;99.90;;;;;;5310107;26;20275;-73
2024/04/10 01:35:58;;;;;;;1.40;0.80;;;8.20;99.90;;;;;;5339241;26;20283;-72
2024/04/10 01:38:24;;;;;;;0.60;0.60;;;8.30;99.90;;;;;;5286002;26;20267;-73
2024/04/10 01:40:49;;;;;;;0.80;0.77;;;8.20;99.90;;;;;;5337565;26;20275;-76
2024/04/10 01:43:15;;;;;;;0.73;0.73;;;8.20;99.90;;;;;;5276758;26;20263;-72
2024/04/10 01:45:41;;;;;;;1.73;1.00;;;8.50;99.90;;;;;;5315517;26;20325;-70
2024/04/10 01:48:08;;;;;;;1.47;1.03;;;8.60;99.90;;;;;;5341274;26;20489;-77
2024/04/10 01:50:33;;;;;;;5.30;1.00;;;8.70;99.90;;;;;;5286044;26;20299;-72
2024/04/10 01:52:59;;;;;;;8.07;1.43;;;8.90;99.90;;;;;;5338997;26;21063;-74
2024/04/10 01:55:25;;;;;;;1.43;0.87;;;8.90;99.90;;;;;;5340685;26;20742;-75
2024/04/10 01:57:50;;;;;;;2.90;1.20;;;9.00;99.90;;;;;;5342451;26;20308;-73
2024/04/10 02:00:20;;;;;;;0.77;0.70;;;9.00;99.90;;;;;;5304635;26;20304;-72
2024/04/10 02:02:47;;;;;;;0.87;0.77;;;9.10;99.90;;;;;;5329095;26;20270;-73
2024/04/10 02:05:13;;;;;;;4.73;1.20;;;9.20;99.90;;;;;;5302731;26;20489;-73
2024/04/10 02:07:38;;;;;;;0.83;0.73;;;9.20;99.90;;;;;;5307049;26;20494;-75
2024/04/10 02:10:04;;;;;;;1.30;0.60;;;9.20;99.90;;;;;;5303083;26;20267;-73
2024/04/10 02:12:30;;;;;;;0.70;0.60;;;9.10;99.90;;;;;;5304553;26;20265;-74
2024/04/10 02:14:55;;;;;;;2.30;1.03;;;9.00;99.90;;;;;;5326918;26;20267;-73
2024/04/10 02:17:21;;;;;;;2.67;0.90;;;9.10;99.90;;;;;;5305514;26;20330;-73
2024/04/10 02:19:49;;;;;;;0.97;0.97;;;9.10;99.90;;;;;;5329187;26;20288;-73
2024/04/10 02:22:15;;;;;;;2.40;0.80;;;9.20;99.90;;;;;;5335761;26;20267;-72
2024/04/10 02:24:41;;;;;;;2.17;0.70;;;9.30;99.90;;;;;;5320452;26;20536;-74
2024/04/10 02:27:06;;;;;;;2.30;1.10;;;9.20;99.90;;;;;;5301221;26;20259;-73
2024/04/10 02:29:32;;;;;;;3.10;1.20;;;9.20;99.90;;;;;;5276623;26;20379;-71
2024/04/10 02:31:58;;;;;;;5.50;1.33;;;9.20;99.90;;;;;;5301669;26;20293;-73
2024/04/10 02:34:23;;;;;;;0.60;0.60;;;9.10;99.90;;;;;;5334534;26;20266;-76
2024/04/10 02:36:49;;;;;;;3.47;0.90;;;9.10;99.90;;;;;;5329105;26;20586;-77
2024/04/10 02:39:14;;;;;;;2.30;1.20;;;9.10;99.90;;;;;;5332105;26;20310;-73
2024/04/10 02:41:40;;;;;;;1.20;0.90;;;9.00;99.90;;;;;;5307208;26;20317;-73
2024/04/10 02:44:06;;;;;;;8.00;1.10;;;8.90;99.90;;;;;;5335061;26;20661;-74
2024/04/10 02:46:32;;;;;;;1.57;0.80;;;9.00;99.90;;;;;;5313309;26;20263;-74
2024/04/10 02:48:58;;;;;;;1.27;0.73;;;9.10;99.90;;;;;;5299237;26;20500;-74
2024/04/10 02:51:23;;;;;;;2.57;1.30;;;9.20;99.90;;;;;;5302509;26;20318;-74
2024/04/10 02:53:49;;;;;;;4.37;1.20;;;9.20;99.90;;;;;;5299610;26;20267;-74
2024/04/10 02:56:15;;;;;;;2.80;1.00;;;9.20;99.90;;;;;;5326182;26;20352;-73
2024/04/10 02:58:40;;;;;;;2.57;0.97;;;9.20;99.90;;;;;;5328919;26;20263;-74
2024/04/10 03:01:10;;;;;;;3.17;1.00;;;9.20;99.90;;;;;;5321109;26;20259;-74
2024/04/10 03:03:36;;;;;;;0.67;0.53;;;9.20;99.90;;;;;;5342534;26;20360;-74
2024/04/10 03:06:03;;;;;;;1.00;0.90;;;9.30;99.90;;;;;;5333237;26;20505;-76
2024/04/10 03:08:36;;;;;;;0.80;0.80;;;9.30;99.90;;;;;;5338783;26;20362;-73
2024/04/10 03:11:04;;;;;;;4.63;1.10;;;9.30;99.90;;;;;;5333228;26;20484;-73
2024/04/10 03:13:31;;;;;;;0.90;0.90;;;9.30;99.90;;;;;;5335596;26;20569;-73
2024/04/10 03:15:57;;;;;;;3.80;1.13;;;9.20;99.90;;;;;;5323034;26;20540;-73
2024/04/10 03:18:23;;;;;;;0.80;0.80;;;9.10;99.90;;;;;;5302986;26;20505;-74
2024/04/10 03:20:48;;;;;;;1.00;0.80;;;9.10;99.90;;;;;;5301092;26;20314;-76
2024/04/10 03:23:14;;;;;;;1.53;1.00;;;9.10;99.90;;;;;;5307216;26;20841;-73
2024/04/10 03:25:40;;;;;;;1.87;1.10;;;9.10;99.90;;;;;;5311162;26;20263;-73
2024/04/10 03:28:06;;;;;;;2.13;1.00;;;9.10;99.90;;;;;;5300610;26;20263;-73
2024/04/10 03:30:35;;;;;;;1.00;0.90;;;9.10;99.90;;;;;;5305443;26;20259;-73
2024/04/10 03:33:01;;;;;;;2.60;1.03;;;9.10;99.90;;;;;;5325431;26;20552;-74
2024/04/10 03:35:27;;;;;;;3.20;1.20;;;8.90;99.90;;;;;;5338358;26;21207;-74
2024/04/10 03:37:52;;;;;;;3.53;0.90;;;8.90;99.90;;;;;;5307848;26;20308;-73
2024/04/10 03:40:18;;;;;;;2.13;1.27;;;8.80;99.90;;;;;;5299289;26;20259;-73
2024/04/10 03:42:43;;;;;;;1.13;0.50;;;8.90;99.90;;;;;;5332966;26;20379;-74
2024/04/10 03:45:12;;;;;;;1.77;1.20;;;9.00;99.90;;;;;;5310806;26;20372;-74
2024/04/10 03:47:38;;;;;;;6.10;1.20;;;9.00;99.90;;;;;;5329778;26;20342;-75
2024/04/10 03:50:06;;;;;;;1.10;1.00;;;8.90;99.90;;;;;;5306115;26;20603;-74
2024/04/10 03:52:31;;;;;;;3.50;1.00;;;8.70;99.90;;;;;;5333789;26;20502;-75
2024/04/10 03:54:57;;;;;;;1.30;1.07;;;8.70;99.90;;;;;;5301014;26;20582;-73
2024/04/10 03:57:28;;;;;;;2.27;1.17;;;8.70;99.90;;;;;;5337946;26;20305;-75
2024/04/10 03:59:53;;;;;;;3.90;1.40;;;8.80;99.90;;;;;;5332043;26;20481;-77
2024/04/10 04:02:19;;;;;;;1.70;1.53;;;8.90;99.90;;;;;;5300961;26;20538;-73
2024/04/10 04:04:45;;;;;;;5.60;1.27;;;8.90;99.90;;;;;;5306802;26;20266;-73
2024/04/10 04:07:10;;;;;;;1.03;0.93;;;9.00;99.90;;;;;;5277609;26;20290;-74
2024/04/10 04:09:36;;;;;;;2.30;0.67;;;9.00;99.90;;;;;;5298799;26;20329;-73
2024/04/10 04:12:02;;;;;;;2.70;1.33;;;9.00;99.90;;;;;;5298611;26;20335;-74
2024/04/10 04:14:28;;;;;;;3.10;1.40;;;9.00;99.90;;;;;;5317618;26;20493;-72
2024/04/10 04:16:54;;;;;;;5.90;2.37;;;9.00;99.90;;;;;;5289296;26;20262;-73
2024/04/10 04:19:19;;;;;;;1.57;1.47;;;8.90;99.90;;;;;;5304972;26;20255;-74
2024/04/10 04:21:45;;;;;;;3.50;1.63;;;8.90;99.90;;;;;;5327058;26;20327;-74
2024/04/10 04:24:11;;;;;;;3.70;2.10;;;8.90;99.90;;;;;;5337057;26;20255;-73
2024/04/10 04:26:37;;;;;;;3.20;1.73;;;8.90;99.90;;;;;;5312332;26;20554;-73
2024/04/10 04:29:02;;;;;;;3.90;1.80;;;8.90;99.90;;;;;;5332290;26;20493;-73
2024/04/10 04:31:28;;;;;;;1.33;1.10;;;8.90;99.90;;;;;;5305317;26;20321;-74
2024/04/10 04:33:55;;;;;;;2.90;1.20;;;8.90;99.90;;;;;;5303703;26;20267;-74
2024/04/10 04:36:21;;;;;;;4.20;1.17;;;8.90;99.90;;;;;;5340352;26;20301;-74
2024/04/10 04:38:46;;;;;;;3.43;2.13;;;8.90;99.90;;;;;;5338269;26;20560;-74
2024/04/10 04:41:12;;;;;;;2.27;1.30;;;8.90;99.90;;;;;;5341967;26;20255;-75
2024/04/10 04:43:38;;;;;;;2.33;1.43;;;8.90;99.90;;;;;;5285955;26;20906;-74
2024/04/10 04:46:03;;;;;;;2.00;1.30;;;8.90;99.90;;;;;;5342463;26;20339;-73
2024/04/10 04:48:29;;;;;;;2.60;1.73;;;8.90;99.90;;;;;;5281948;26;20271;-74
2024/04/10 04:50:55;;;;;;;2.23;1.83;;;8.90;99.90;;;;;;5342507;26;20309;-74
2024/04/10 04:53:21;;;;;;;2.37;1.70;;;8.90;99.90;;;;;;5307644;26;20681;-74
2024/04/10 04:55:47;;;;;;;2.13;1.93;;;8.80;99.90;;;;;;5346368;26;20286;-74
2024/04/10 04:58:12;;;;;;;3.23;1.50;;;8.80;99.90;;;;;;5312383;26;20986;-74
2024/04/10 05:00:39;;;;;;;2.93;1.60;;;8.80;99.90;;;;;;5346098;26;20267;-72
2024/04/10 05:03:06;;;;;;;3.07;1.57;;;8.70;99.90;;;;;;5308838;26;20297;-72
2024/04/10 05:05:33;;;;;;;1.63;1.43;;;8.60;99.90;;;;;;5342917;26;20913;-74
2024/04/10 05:07:59;;;;;;;1.90;1.07;;;8.70;99.90;;;;;;5313266;26;21135;-74
2024/04/10 05:10:25;;;;;;;2.40;1.33;;;8.70;99.90;;;;;;5345228;26;20554;-74
2024/04/10 05:12:51;;;;;;;8.37;1.67;;;8.60;99.90;;;;;;5311070;26;20599;-73
2024/04/10 05:15:16;;;;;;;2.43;1.23;;;8.60;99.90;;;;;;5313122;26;20946;-74
2024/04/10 05:17:44;;;;;;;1.97;1.40;;;8.50;99.90;;;;;;5307972;26;20697;-73
2024/04/10 05:20:11;;;;;;;3.73;1.47;;;8.50;99.90;;;;;;5347906;26;20365;-74
2024/04/10 05:22:41;;;;;;;10.90;2.17;;;8.50;99.90;;;;;;5306977;26;20535;-74
2024/04/10 05:25:09;;;;;;;4.77;1.60;;;8.60;99.90;;;;;;5310516;26;20836;-74
2024/04/10 05:27:37;;;;;;;2.00;1.43;;;8.60;99.90;;;;;;5344320;26;20593;-73
2024/04/10 05:30:08;;;;;;;6.80;1.50;;;8.60;99.90;;;;;;5309618;26;20493;-74
2024/04/10 05:32:38;;;;;;;1.17;1.03;;;8.50;99.90;;;;;;5312318;26;20485;-73
2024/04/10 05:35:09;;;;;;;2.53;1.60;;;8.40;99.90;;;;;;5341458;26;20546;-74
2024/04/10 05:37:35;;;;;;;4.57;1.40;;;8.40;99.90;;;;;;5310199;26;20489;-74
2024/04/10 05:40:09;;;;;;;3.27;1.90;;;8.40;99.90;;;;;;5287512;26;20934;-76
2024/04/10 05:42:37;;;;;;;4.00;1.90;;;8.50;99.90;;;;;;5314982;26;21165;-76
2024/04/10 05:45:09;;;;;;;3.00;1.20;;;8.40;99.90;;;;;;5341287;26;20494;-73
2024/04/10 05:47:36;;;;;;;2.20;1.33;;;8.50;99.90;;;;;;5308118;26;20494;-74
2024/04/10 05:50:02;;;;;;;1.13;1.07;;;8.50;99.90;;;;;;5341443;26;20481;-74
2024/04/10 05:52:27;;;;;;;3.13;1.77;;;8.40;99.90;;;;;;5309413;26;20488;-74
2024/04/10 05:54:53;;;;;;;2.23;1.47;;;8.50;99.90;;;;;;5340643;26;20627;-76
2024/04/10 05:57:20;;;;;;;1.57;1.33;;;8.50;99.90;;;;;;5333709;26;20759;-74
2024/04/10 05:59:46;;;;;;;4.13;1.63;;;8.50;99.90;;;;;;5297854;26;20334;-73
2024/04/10 06:02:11;;;;;;;3.83;1.67;;;8.50;99.90;;;;;;5342776;26;21272;-73
2024/04/10 06:04:38;;;;;;;2.90;1.37;;;8.50;99.90;;;;;;5337364;26;20325;-73
2024/04/10 06:07:04;;;;;;;2.10;1.03;;;8.50;99.90;;;;;;5306844;26;20317;-74
2024/04/10 06:09:30;;;;;;;4.17;1.80;;;8.50;99.90;;;;;;5337081;26;20505;-74
2024/04/10 06:11:55;;;;;;;2.63;0.80;;;8.40;99.90;;;;;;5341423;26;20601;-73
2024/04/10 06:14:21;;;;;;;3.00;1.27;;;8.40;99.90;;;;;;5306541;26;20271;-72
2024/04/10 06:16:47;;;;;;;3.77;1.30;;;8.40;99.90;;;;;;5339129;26;20349;-73
2024/04/10 06:19:12;;;;;;;3.87;1.37;;;8.40;99.90;;;;;;5338131;26;20265;-74
2024/04/10 06:21:38;;;;;;;3.53;1.40;;;8.20;99.90;;;;;;5311920;26;20271;-73
2024/04/10 06:24:05;;;;;;;3.40;1.17;;;8.20;99.90;;;;;;5315827;26;20279;-73
2024/04/10 06:26:31;;;;;;;3.00;1.70;;;8.20;99.90;;;;;;5338919;26;20337;-73
2024/04/10 06:28:57;;;;;;;1.87;1.40;;;8.30;99.90;;;;;;5334389;26;20509;-74
2024/04/10 06:31:23;;;;;;;3.63;1.50;;;8.40;99.90;;;;;;5335847;26;20318;-72
2024/04/10 06:33:49;;;;;;;5.10;1.57;;;8.50;99.90;;;;;;5331042;26;20298;-73
2024/04/10 06:36:15;;;;;;;2.30;1.70;;;8.50;99.90;;;;;;5302286;26;20286;-75
2024/04/10 06:38:40;;;;;;;7.53;1.80;;;8.40;99.90;;;;;;5302978;26;20504;-73
2024/04/10 06:41:06;;;;;;;7.33;2.10;;;8.50;99.90;;;;;;5327230;26;20260;-75
2024/04/10 06:43:33;;;;;;;3.73;1.33;;;8.50;99.90;;;;;;5331297;26;20330;-71
2024/04/10 06:46:03;;;;;;;1.20;1.10;;;8.40;99.90;;;;;;5342624;26;20549;-75
2024/04/10 06:48:30;;;;;;;5.50;1.73;;;8.30;99.90;;;;;;5309913;26;20489;-75
2024/04/10 06:51:00;;;;;;;4.50;1.17;;;8.40;99.90;;;;;;5336816;26;20497;-77
2024/04/10 06:53:26;;;;;;;4.27;1.63;;;8.50;99.90;;;;;;5306709;26;20497;-73
2024/04/10 06:55:56;;;;;;;2.87;1.50;;;8.50;99.90;;;;;;5351008;26;20619;-73
2024/04/10 06:58:23;;;;;;;1.23;0.83;;;8.60;99.90;;;;;;5341679;26;20553;-75
2024/04/10 07:00:56;;;;;;;6.40;1.50;;;8.70;99.90;;;;;;5339404;26;20596;-76
2024/04/10 07:03:23;;;;;;;4.23;1.50;;;8.60;99.90;;;;;;5339731;26;20492;-72
2024/04/10 07:05:49;;;;;;;6.90;1.53;;;8.60;99.90;;;;;;5338745;26;20501;-75
2024/04/10 07:08:15;;;;;;;2.20;1.37;;;8.70;99.90;;;;;;5350042;26;20589;-74
2024/04/10 07:10:41;;;;;;;1.50;1.30;;;8.80;99.90;;;;;;5344370;26;21193;-74
2024/04/10 07:13:08;;;;;;;5.63;1.70;;;8.90;99.90;;;;;;5342580;26;20266;-76
2024/04/10 07:15:34;;;;;;;2.80;2.03;;;9.00;99.90;;;;;;5314535;26;20259;-77
2024/04/10 07:17:59;;;;;;;1.27;1.07;;;9.10;99.90;;;;;;5338081;26;20564;-74
2024/04/10 07:20:26;;;;;;;7.90;1.60;;;9.10;99.90;;;;;;5342667;26;20332;-74
2024/04/10 07:22:52;;;;;;;5.00;1.50;;;9.20;99.90;;;;;;5308070;26;20298;-76
2024/04/10 07:25:17;;;;;;;5.70;1.47;;;9.30;99.90;;;;;;5344095;26;20490;-72
2024/04/10 07:27:44;;;;;;;4.13;2.00;;;9.30;99.90;;;;;;5352152;26;20315;-74
2024/04/10 07:30:10;;;;;;;3.97;1.50;;;9.40;99.90;;;;;;5323261;26;20622;-74
2024/04/10 07:32:36;;;;;;;6.30;1.77;;;9.40;99.90;;;;;;5340374;26;20541;-74
2024/04/10 07:35:02;;;;;;;3.83;1.30;;;9.50;99.90;;;;;;5312659;26;20814;-75
2024/04/10 07:37:28;;;;;;;4.90;1.63;;;9.60;99.90;;;;;;5303873;26;20271;-78
2024/04/10 07:39:53;;;;;;;4.10;1.53;;;9.70;99.90;;;;;;5314030;26;20972;-74
2024/04/10 07:42:19;;;;;;;3.10;1.60;;;9.80;99.90;;;;;;5339041;26;20271;-74
2024/04/10 07:44:45;;;;;;;7.20;1.53;;;9.80;99.90;;;;;;5315745;26;20343;-74
2024/04/10 07:47:10;;;;;;;6.27;2.00;;;9.90;99.90;;;;;;5315600;26;20308;-75
2024/04/10 07:49:36;;;;;;;1.50;1.40;;;10.00;99.90;;;;;;5312543;26;20372;-74
2024/04/10 07:52:01;;;;;;;4.43;1.30;;;10.10;99.90;;;;;;5339826;26;20376;-74
2024/04/10 07:54:31;;;;;;;4.00;1.70;;;10.20;99.90;;;;;;5306676;26;20287;-73
2024/04/10 07:56:57;;;;;;;5.90;1.80;;;10.30;99.90;;;;;;5331599;26;20267;-74
2024/04/10 07:59:23;;;;;;;9.70;1.73;;;10.40;99.90;;;;;;5338472;26;20552;-73
2024/04/10 08:01:48;;;;;;;1.60;1.13;;;10.50;99.90;;;;;;5308211;26;20298;-77
2024/04/10 08:04:14;;;;;;;3.60;1.47;;;10.60;99.90;;;;;;5343996;26;20258;-74
2024/04/10 08:06:40;;;;;;;4.00;1.90;;;10.70;99.90;;;;;;5343745;26;20797;-74
2024/04/10 08:09:06;;;;;;;9.40;1.97;;;10.70;99.90;;;;;;5337652;26;20338;-75
2024/04/10 08:11:33;;;;;;;9.40;2.30;;;10.80;99.90;;;;;;5344034;26;20306;-74
2024/04/10 08:14:00;;;;;;;6.30;1.70;;;11.00;99.90;;;;;;5317084;26;20537;-71
2024/04/10 08:16:26;;;;;;;3.97;1.90;;;11.10;99.90;;;;;;5328027;26;20494;-72
2024/04/10 08:18:52;;;;;;;2.73;1.40;;;11.10;99.90;;;;;;5312124;26;20505;-74
2024/04/10 08:21:18;;;;;;;3.83;1.90;;;11.30;99.90;;;;;;5313561;26;20271;-76
2024/04/10 08:23:45;;;;;;;2.20;1.50;;;11.50;99.90;;;;;;5308333;26;20278;-73
2024/04/10 08:26:15;;;;;;;5.43;2.63;;;11.50;99.90;;;;;;5335989;26;20542;-73
2024/04/10 08:28:45;;;;;;;2.60;1.73;;;11.60;99.90;;;;;;5308696;26;20582;-74
2024/04/10 08:31:13;;;;;;;3.03;1.80;;;11.80;99.90;;;;;;5336886;26;20488;-74
2024/04/10 08:33:39;;;;;;;3.10;1.70;;;11.80;99.90;;;;;;5306984;26;20550;-74
2024/04/10 08:36:06;;;;;;;3.40;1.50;;;11.80;99.90;;;;;;5312749;26;20560;-75
2024/04/10 08:38:32;;;;;;;2.37;2.00;;;11.80;99.90;;;;;;5342614;26;20541;-72
2024/04/10 08:40:58;;;;;;;5.60;2.30;;;11.80;99.90;;;;;;5342218;26;20493;-74
2024/04/10 08:43:26;;;;;;;3.63;1.77;;;11.80;99.90;;;;;;5336968;26;20263;-75
2024/04/10 08:45:52;;;;;;;5.30;1.63;;;12.00;99.90;;;;;;5311352;26;20619;-75
2024/04/10 08:48:18;;;;;;;3.07;1.57;;;12.00;99.90;;;;;;5313038;26;20616;-76
2024/04/10 08:50:46;;;;;;;2.97;1.20;;;12.20;99.90;;;;;;5335975;26;20545;-75
2024/04/10 08:53:13;;;;;;;2.90;2.37;;;12.30;99.90;;;;;;5298968;26;20489;-75
2024/04/10 08:55:40;;;;;;;2.40;1.30;;;12.50;99.90;;;;;;5343745;26;20485;-74
2024/04/10 08:58:07;;;;;;;9.23;2.40;;;12.40;99.90;;;;;;5285601;26;20482;-74
2024/04/10 09:00:39;;;;;;;1.83;1.13;;;12.20;99.90;;;;;;5337194;26;20493;-75
2024/04/10 09:03:05;;;;;;;5.20;1.90;;;12.20;99.90;;;;;;5304494;26;21055;-74
2024/04/10 09:05:30;;;;;;;2.20;1.43;;;12.60;99.90;;;;;;5308386;26;20494;-72
2024/04/10 09:08:00;;;;;;;2.43;1.63;;;12.70;99.90;;;;;;5343526;26;20330;-75
2024/04/10 09:10:26;;;;;;;6.37;2.13;;;12.60;99.90;;;;;;5308310;26;20267;-74
2024/04/10 09:13:19;;;;;;;2.93;1.50;;;12.60;99.90;;;;;;5335039;26;20541;-73
2024/04/10 09:15:44;;;;;;;3.67;1.60;;;12.70;99.90;;;;;;5303441;26;20489;-73
2024/04/10 09:18:10;;;;;;;7.13;1.67;;;12.80;99.90;;;;;;5332690;26;20579;-73
2024/04/10 09:20:36;;;;;;;2.40;1.53;;;12.90;99.90;;;;;;5333197;26;20255;-72
2024/04/10 09:23:04;;;;;;;3.57;1.67;;;12.90;99.90;;;;;;5337311;26;20364;-74
2024/04/10 09:25:31;;;;;;;3.17;1.60;;;12.80;99.90;;;;;;5338015;26;20322;-75
2024/04/10 09:28:04;;;;;;;4.83;2.00;;;12.50;99.90;;;;;;5342307;26;21009;-74
2024/04/10 09:30:30;;;;;;;7.33;1.57;;;12.60;99.90;;;;;;5338299;26;21142;-74
2024/04/10 09:32:58;;;;;;;2.93;1.50;;;12.80;99.90;;;;;;5305807;26;20502;-72
2024/04/10 09:35:25;;;;;;;11.57;5.67;;;12.90;99.90;;;;;;5331003;26;20490;-72
2024/04/10 09:37:54;;;;;;;8.17;4.70;;;12.90;99.90;;;;;;5336103;26;20481;-75
2024/04/10 09:40:23;;;;;;;3.37;2.60;;;13.00;99.90;;;;;;5343671;26;20608;-72
2024/04/10 09:42:49;;;;;;;2.40;2.13;;;12.80;99.90;;;;;;5300644;26;20546;-74
2024/04/10 09:45:21;;;;;;;3.63;1.40;;;13.00;99.90;;;;;;5312403;26;20493;-73
2024/04/10 09:47:50;;;;;;;1.83;1.07;;;13.40;99.90;;;;;;5306596;26;20546;-73
2024/04/10 09:50:28;;;;;;;1.83;1.40;;;13.70;99.90;;;;;;5337002;26;20482;-73
2024/04/10 09:52:55;;;;;;;2.90;1.37;;;13.70;99.90;;;;;;5316027;26;20493;-74
2024/04/10 09:55:20;;;;;;;3.97;1.20;;;13.70;99.90;;;;;;5303004;26;20495;-72
2024/04/10 09:57:46;;;;;;;3.77;1.80;;;14.00;99.90;;;;;;5338795;26;20502;-73
2024/04/10 10:00:13;;;;;;;1.83;1.40;;;14.20;99.90;;;;;;5336099;26;20309;-74
2024/04/10 10:02:38;;;;;;;3.90;2.13;;;14.40;99.90;;;;;;5309280;26;20931;-73
2024/04/10 10:05:05;;;;;;;2.23;1.23;;;14.40;99.90;;;;;;5338502;26;20545;-72
2024/04/10 10:07:32;;;;;;;4.23;1.17;;;14.80;99.90;;;;;;5339588;26;20342;-71
2024/04/10 10:10:08;;;;;;;2.00;1.10;;;14.90;99.90;;;;;;5343826;26;20541;-72
2024/04/10 10:12:33;;;;;;;4.87;1.77;;;14.60;99.90;;;;;;5312639;26;20545;-76
2024/04/10 10:15:09;;;;;;;2.43;1.50;;;14.60;99.90;;;;;;5304077;26;20502;-74
2024/04/10 10:17:35;;;;;;;3.20;1.20;;;15.10;99.90;;;;;;5340544;26;20307;-73
2024/04/10 10:20:01;;;;;;;3.23;1.70;;;15.50;99.90;;;;;;5309332;26;20486;-73
2024/04/10 10:22:26;;;;;;;3.03;1.53;;;15.60;99.90;;;;;;5342872;26;20263;-73
2024/04/10 10:24:59;;;;;;;2.13;1.33;;;15.30;99.90;;;;;;5342733;26;20307;-73
2024/04/10 10:27:25;;;;;;;2.00;1.17;;;15.10;99.90;;;;;;5309516;26;20275;-73
2024/04/10 10:30:06;;;;;;;2.50;1.63;;;15.00;99.90;;;;;;5309326;26;20482;-74
2024/04/10 10:32:32;;;;;;;1.80;1.17;;;15.10;99.90;;;;;;5339701;26;20588;-76
2024/04/10 10:35:10;;;;;;;1.60;1.00;;;15.40;99.90;;;;;;5305691;26;20499;-73
2024/04/10 10:37:36;;;;;;;2.90;1.30;;;15.90;99.90;;;;;;5336011;26;20258;-74
2024/04/10 10:40:06;;;;;;;5.57;1.47;;;16.00;99.90;;;;;;5304688;26;20501;-73
2024/04/10 10:42:32;;;;;;;6.37;2.00;;;16.10;99.90;;;;;;5336756;26;20263;-73
2024/04/10 10:45:07;;;;;;;2.60;1.70;;;16.00;99.90;;;;;;5304172;26;20598;-72
2024/04/10 10:47:39;;;;;;;5.73;2.37;;;16.20;99.90;;;;;;5344194;26;20500;-71
2024/04/10 10:50:05;;;;;;;4.97;1.50;;;15.90;99.90;;;;;;5348888;26;21836;-72
2024/04/10 10:52:31;;;;;;;1.80;1.00;;;15.20;99.90;;;;;;5342602;26;20604;-74
2024/04/10 10:54:57;;;;;;;3.33;1.47;;;15.10;99.90;;;;;;5331097;26;21105;-74
2024/04/10 10:57:23;;;;;;;2.50;1.60;;;15.30;99.90;;;;;;5302950;26;20484;-73
2024/04/10 10:59:49;;;;;;;1.43;1.17;;;15.50;99.90;;;;;;5299650;26;21084;-74
2024/04/10 11:02:15;;;;;;;2.67;1.33;;;15.50;99.90;;;;;;5303214;26;20297;-72
2024/04/10 11:04:41;;;;;;;3.23;1.00;;;15.40;99.90;;;;;;5299634;26;20757;-74
2024/04/10 11:07:07;;;;;;;3.23;1.43;;;15.40;99.90;;;;;;5299472;26;20503;-75
2024/04/10 11:09:33;;;;;;;3.83;1.10;;;15.50;99.90;;;;;;5304344;26;20266;-74
2024/04/10 11:12:01;;;;;;;2.33;1.13;;;15.90;99.90;;;;;;5331554;26;21085;-75
2024/04/10 11:14:27;;;;;;;1.33;0.90;;;16.20;99.90;;;;;;5328787;26;20262;-74
2024/04/10 11:17:09;;;;;;;4.37;1.80;;;15.90;99.10;;;;;;5329149;26;21079;-75
2024/04/10 11:19:37;;;;;;;2.97;1.27;;;16.30;98.30;;;;;;5337305;26;20270;-73
2024/04/10 11:22:04;;;;;;;2.40;1.07;;;16.70;98.00;;;;;;5300891;26;20493;-75
2024/04/10 11:24:30;;;;;;;2.03;1.10;;;16.70;98.30;;;;;;5298835;26;20504;-73
2024/04/10 11:26:56;;;;;;;0.80;0.80;;;16.50;99.00;;;;;;5332469;26;20565;-73
2024/04/10 11:29:21;;;;;;;1.63;1.00;;;16.30;98.70;;;;;;5342873;26;20314;-74
2024/04/10 11:31:47;;;;;;;2.33;0.97;;;16.50;99.20;;;;;;5322058;26;20279;-74
2024/04/10 11:34:13;;;;;;;2.20;1.40;;;16.70;97.10;;;;;;5332829;26;20358;-72
2024/04/10 11:36:39;;;;;;;1.47;1.00;;;16.70;96.80;;;;;;5330547;26;20259;-77
2024/04/10 11:39:07;;;;;;;1.50;1.13;;;16.70;98.00;;;;;;5327541;26;20546;-73
2024/04/10 11:41:33;;;;;;;3.00;1.03;;;16.20;97.30;;;;;;5334534;26;20370;-74
2024/04/10 11:43:58;;;;;;;2.73;0.93;;;16.20;97.80;;;;;;5299372;26;20548;-73
2024/04/10 11:46:24;;;;;;;2.00;0.90;;;16.00;97.70;;;;;;5300558;26;20267;-74
2024/04/10 11:48:49;;;;;;;1.77;1.37;;;16.00;98.70;;;;;;5328646;26;20346;-75
2024/04/10 11:51:15;;;;;;;2.90;1.17;;;16.10;98.50;;;;;;5302550;26;20698;-74
2024/04/10 11:53:41;;;;;;;1.83;1.40;;;16.00;98.20;;;;;;5330201;26;20391;-71
2024/04/10 11:56:06;;;;;;;2.80;1.13;;;15.80;98.10;;;;;;5333580;26;20279;-74
2024/04/10 11:58:32;;;;;;;1.40;1.30;;;15.70;98.60;;;;;;5305847;26;20278;-74
2024/04/10 12:00:57;;;;;;;1.43;1.07;;;15.80;99.10;;;;;;5267656;26;20290;-74
2024/04/10 12:03:23;;;;;;;6.53;2.80;;;15.60;98.10;;;;;;5302085;26;20259;-74
2024/04/10 12:05:52;;;;;;;2.83;1.57;;;15.30;98.70;;;;;;5326850;26;20364;-73
2024/04/10 12:08:19;;;;;;;2.90;1.57;;;15.20;99.10;;;;;;5332005;26;20309;-74
2024/04/10 12:10:45;;;;;;;2.37;1.60;;;15.40;98.80;;;;;;5275522;26;20490;-74
2024/04/10 12:13:11;;;;;;;2.27;1.40;;;15.40;98.50;;;;;;5274110;26;20544;-75
2024/04/10 12:15:36;;;;;;;1.90;1.20;;;15.70;99.10;;;;;;5294271;26;20374;-75
2024/04/10 12:18:02;;;;;;;1.30;1.20;;;15.80;98.60;;;;;;5313894;26;20368;-75
2024/04/10 12:20:28;;;;;;;3.53;1.10;;;15.70;97.90;;;;;;5294585;26;20301;-75
2024/04/10 12:22:54;;;;;;;1.50;1.00;;;15.40;97.10;;;;;;5299940;26;20474;-73
2024/04/10 12:25:19;;;;;;;1.93;1.00;;;15.30;97.50;;;;;;5331058;26;20310;-74
2024/04/10 12:27:46;;;;;;;2.13;1.40;;;15.40;97.60;;;;;;5326597;26;20364;-72
2024/04/10 12:30:12;;;;;;;2.50;1.00;;;15.40;97.20;;;;;;5303142;26;20278;-73
2024/04/10 12:32:37;;;;;;;4.70;1.40;;;15.40;97.40;;;;;;5294301;26;21022;-73
2024/04/10 12:38:03;;;;;;;3.97;1.37;;;15.40;97.70;;;;;;5318132;26;20351;-74
2024/04/10 12:40:29;;;;;;;1.77;1.10;;;15.50;97.50;;;;;;5310191;26;20481;-74
2024/04/10 12:42:55;;;;;;;2.33;1.10;;;15.50;97.40;;;;;;5302924;26;20517;-74
2024/04/10 12:45:21;;;;;;;1.37;1.13;;;15.50;96.90;;;;;;5341337;26;20537;-72
2024/04/10 12:47:47;;;;;;;1.70;1.60;;;15.50;97.60;;;;;;5316126;26;20274;-75
2024/04/10 12:50:13;;;;;;;1.17;1.07;;;15.50;97.30;;;;;;5311776;26;20607;-76
2024/04/10 12:52:42;;;;;;;1.03;1.00;;;15.30;96.90;;;;;;5309513;26;20769;-71